DSI weather

Destin Executive Airport
Destin, Florida, United States

Public forecast

Using degrees Fahrenheit for public forecast. Weather courtesy of forecast.io.

Current aviation weather report (METAR) for Destin Executive Airport

Retrieved 2020/02/22 08:53 UTC (1 hour ago):

KDTS 220853Z AUTO 05003KT 10SM CLR 06/01 A3042 RMK AO2 SLP299 T00560011 58008

Closest aviation forecast (TAF) to Destin Executive Airport

Forecast is more than 6 hours old.

Closest forecast is Destin-Ft Walton Beach Airport, 5.7 nm (10.6 km) NNW. Retrieved 2020-02-22 02:06 UTC (8 hours ago):

TAF KVPS 220200Z 2202/2308 03009KT 9999 FEW030 QNH3038INS BECMG 2215/2216 07010G15KT 9999 SKC QNH3030INS BECMG 2303/2304 04006KT 9999 FEW180 FEW250 QNH3028INS TX14/2221Z TN01/2211Z